Huvudsida
METAR-TAF:

METAR-TAF

Flygplatser :

Småland Airport

Växjö, Sverige

latitud: 56-51N, longitud: 014-50E, höjd: 199 m

Aktuellt väderrapport

Denna rapport gjordes för 24 minuter sedan, klockan 09:20 UTC
Vind 6 kt varierande vindriktning
Temperatur 21°C
Fuktighet 33%
Tryck 1019 hPa
Sikt 10 km eller mer
Inga moln under 1 500 m eller inga cumulonimbus

METAR: ESMX 220920Z VRB06KT CAVOK 21/04 Q1019

Tid: 11:44 (09:44 UTC)

Väderprognos

Denna rapport gjordes för 1 timme och 14 minuter sedan, klockan 08:30 UTC
Prognos gäller från 22 kl. 09 UTC till 22 kl. 18 UTC
Vind 6 kt från nord/nordost
Sikt 10 km eller mer
Inga moln under 1 500 m eller inga cumulonimbus

TAF: ESMX 220830Z 2209/2218 03006KT CAVOK

Aktuella väderrapporter och prognoser från 4000 flygplatser (METAR- och TAF-rapporter).

De tillgängliga stationerna syns som gula och röda prickar på kartan.

För musen över prickarna för att se namnen på stationerna.

Klicka sedan för att få väderrapporter och prognoser.

För att ändra kartan: Klicka på de gröna knapparna med ett svart kors på för att zooma in; den gröna knappen med ett streck på för att zooma ut; eller på de gröna pilarna för angränsande kartor.


METAR-TAF: